National Weather Service United States Department of Commerce
Click Here for Latest Airport Weather Warnings
 
Latest Huntsville TAF


718
FTUS44 KHUN 161120
TAFHSV
TAF
KHSV 161120Z 1612/1712 00000KT P6SM SKC
FM161600 02006KT P6SM SKC=

Latest Muscle Shoals TAF


000
FTUS44 KHUN 161319 AAA
TAFMSL
TAF AMD
KMSL 161319Z 1613/1712 03005KT P6SM SKC=


Back to Main Huntsville Weather Forecast Office Page